sensor_id;sensor_type;location;lat;lon;timestamp;pressure;altitude;pressure_sealevel;temperature
18713;BMP280;9485;49.386;8.674;2023-03-31T00:04:01;99764.75;;;13.89
18713;BMP280;9485;49.386;8.674;2023-03-31T00:09:23;99759.47;;;13.99
18713;BMP280;9485;49.386;8.674;2023-03-31T00:14:44;99736.66;;;14.04
18713;BMP280;9485;49.386;8.674;2023-03-31T00:20:08;99726.53;;;14.09
18713;BMP280;9485;49.386;8.674;2023-03-31T00:25:30;99709.22;;;14.12
18713;BMP280;9485;49.386;8.674;2023-03-31T00:30:51;99708.41;;;14.17
18713;BMP280;9485;49.386;8.674;2023-03-31T00:36:13;99691.19;;;14.28
18713;BMP280;9485;49.386;8.674;2023-03-31T00:41:39;99680.50;;;14.34
18713;BMP280;9485;49.386;8.674;2023-03-31T00:47:04;99683.28;;;14.39
18713;BMP280;9485;49.386;8.674;2023-03-31T00:52:33;99687.09;;;14.42
18713;BMP280;9485;49.386;8.674;2023-03-31T00:57:56;99661.72;;;14.31
18713;BMP280;9485;49.386;8.674;2023-03-31T01:03:20;99663.06;;;14.43
18713;BMP280;9485;49.386;8.674;2023-03-31T01:08:44;99655.97;;;14.49
18713;BMP280;9485;49.386;8.674;2023-03-31T01:14:06;99648.16;;;14.55
18713;BMP280;9485;49.386;8.674;2023-03-31T01:19:44;99643.78;;;14.54
18713;BMP280;9485;49.386;8.674;2023-03-31T01:32:10;99615.25;;;14.60
18713;BMP280;9485;49.386;8.674;2023-03-31T01:43:49;99624.81;;;14.31
18713;BMP280;9485;49.386;8.674;2023-03-31T01:49:21;99615.22;;;14.16
18713;BMP280;9485;49.386;8.674;2023-03-31T01:54:50;99599.28;;;14.13
18713;BMP280;9485;49.386;8.674;2023-03-31T02:00:18;99572.66;;;14.16
18713;BMP280;9485;49.386;8.674;2023-03-31T02:05:48;99563.28;;;14.21
18713;BMP280;9485;49.386;8.674;2023-03-31T02:11:12;99562.19;;;14.24
18713;BMP280;9485;49.386;8.674;2023-03-31T02:16:38;99562.44;;;14.26
18713;BMP280;9485;49.386;8.674;2023-03-31T02:22:01;99551.16;;;14.20
18713;BMP280;9485;49.386;8.674;2023-03-31T02:27:28;99552.25;;;14.17
18713;BMP280;9485;49.386;8.674;2023-03-31T02:32:52;99540.13;;;14.17
18713;BMP280;9485;49.386;8.674;2023-03-31T02:38:13;99515.44;;;14.12
18713;BMP280;9485;49.386;8.674;2023-03-31T02:43:34;99496.16;;;14.05
18713;BMP280;9485;49.386;8.674;2023-03-31T02:48:59;99489.72;;;14.04
18713;BMP280;9485;49.386;8.674;2023-03-31T03:00:41;99448.84;;;14.13
18713;BMP280;9485;49.386;8.674;2023-03-31T03:06:25;99432.47;;;14.19
18713;BMP280;9485;49.386;8.674;2023-03-31T03:12:10;99406.38;;;14.20
18713;BMP280;9485;49.386;8.674;2023-03-31T03:17:36;99401.88;;;14.25
18713;BMP280;9485;49.386;8.674;2023-03-31T03:23:00;99390.22;;;14.28
18713;BMP280;9485;49.386;8.674;2023-03-31T03:28:21;99381.69;;;14.28
18713;BMP280;9485;49.386;8.674;2023-03-31T03:33:41;99358.41;;;14.29
18713;BMP280;9485;49.386;8.674;2023-03-31T03:39:06;99341.84;;;14.33
18713;BMP280;9485;49.386;8.674;2023-03-31T03:44:26;99320.09;;;14.36
18713;BMP280;9485;49.386;8.674;2023-03-31T03:49:47;99297.38;;;14.36
18713;BMP280;9485;49.386;8.674;2023-03-31T03:55:09;99247.84;;;14.24
18713;BMP280;9485;49.386;8.674;2023-03-31T04:00:31;99269.09;;;14.30
18713;BMP280;9485;49.386;8.674;2023-03-31T04:05:56;99274.78;;;14.30
18713;BMP280;9485;49.386;8.674;2023-03-31T04:11:18;99294.88;;;14.32
18713;BMP280;9485;49.386;8.674;2023-03-31T04:16:39;99284.50;;;14.35
18713;BMP280;9485;49.386;8.674;2023-03-31T04:22:00;99268.19;;;14.35
18713;BMP280;9485;49.386;8.674;2023-03-31T04:27:24;99270.50;;;14.37
18713;BMP280;9485;49.386;8.674;2023-03-31T04:32:46;99247.56;;;14.35
18713;BMP280;9485;49.386;8.674;2023-03-31T04:38:09;99229.44;;;14.38
18713;BMP280;9485;49.386;8.674;2023-03-31T04:43:31;99217.75;;;14.41
18713;BMP280;9485;49.386;8.674;2023-03-31T04:48:52;99221.00;;;14.45
18713;BMP280;9485;49.386;8.674;2023-03-31T04:54:13;99197.56;;;14.32
18713;BMP280;9485;49.386;8.674;2023-03-31T04:59:34;99219.81;;;14.41
18713;BMP280;9485;49.386;8.674;2023-03-31T05:04:55;99206.97;;;14.27
18713;BMP280;9485;49.386;8.674;2023-03-31T05:10:16;99212.13;;;14.16
18713;BMP280;9485;49.386;8.674;2023-03-31T05:15:39;99206.78;;;13.99
18713;BMP280;9485;49.386;8.674;2023-03-31T05:21:10;99224.06;;;13.88
18713;BMP280;9485;49.386;8.674;2023-03-31T05:26:31;99222.75;;;13.63
18713;BMP280;9485;49.386;8.674;2023-03-31T05:31:55;99211.06;;;13.41
18713;BMP280;9485;49.386;8.674;2023-03-31T05:37:16;99188.72;;;13.25
18713;BMP280;9485;49.386;8.674;2023-03-31T05:42:37;99171.69;;;13.12
18713;BMP280;9485;49.386;8.674;2023-03-31T05:48:00;99177.03;;;13.02
18713;BMP280;9485;49.386;8.674;2023-03-31T05:53:21;99150.84;;;12.96
18713;BMP280;9485;49.386;8.674;2023-03-31T05:58:42;99137.31;;;12.89
18713;BMP280;9485;49.386;8.674;2023-03-31T06:04:06;99123.38;;;12.91
18713;BMP280;9485;49.386;8.674;2023-03-31T06:09:27;99112.84;;;12.92
18713;BMP280;9485;49.386;8.674;2023-03-31T06:14:48;99084.28;;;12.90
18713;BMP280;9485;49.386;8.674;2023-03-31T06:20:11;99097.34;;;12.93
18713;BMP280;9485;49.386;8.674;2023-03-31T06:25:32;99083.19;;;12.93
18713;BMP280;9485;49.386;8.674;2023-03-31T06:31:00;99057.69;;;12.93
18713;BMP280;9485;49.386;8.674;2023-03-31T06:36:24;99030.47;;;12.90
18713;BMP280;9485;49.386;8.674;2023-03-31T06:41:45;98999.38;;;12.97
18713;BMP280;9485;49.386;8.674;2023-03-31T06:47:13;99027.38;;;13.01
18713;BMP280;9485;49.386;8.674;2023-03-31T06:52:38;99037.72;;;13.11
18713;BMP280;9485;49.386;8.674;2023-03-31T06:58:00;99034.47;;;13.20
18713;BMP280;9485;49.386;8.674;2023-03-31T07:03:21;99030.63;;;13.31
18713;BMP280;9485;49.386;8.674;2023-03-31T07:08:45;99049.88;;;13.45
18713;BMP280;9485;49.386;8.674;2023-03-31T07:14:06;99040.72;;;13.52
18713;BMP280;9485;49.386;8.674;2023-03-31T07:19:27;99042.47;;;13.55
18713;BMP280;9485;49.386;8.674;2023-03-31T07:24:49;99034.19;;;13.57
18713;BMP280;9485;49.386;8.674;2023-03-31T07:30:14;99034.94;;;13.57
18713;BMP280;9485;49.386;8.674;2023-03-31T07:35:37;99044.63;;;13.62
18713;BMP280;9485;49.386;8.674;2023-03-31T07:41:00;99054.53;;;13.68
18713;BMP280;9485;49.386;8.674;2023-03-31T07:46:26;99047.09;;;13.78
18713;BMP280;9485;49.386;8.674;2023-03-31T07:51:48;99048.00;;;13.94
18713;BMP280;9485;49.386;8.674;2023-03-31T07:57:11;99042.72;;;14.11
18713;BMP280;9485;49.386;8.674;2023-03-31T08:02:35;99063.50;;;14.26
18713;BMP280;9485;49.386;8.674;2023-03-31T08:07:57;99067.63;;;14.25
18713;BMP280;9485;49.386;8.674;2023-03-31T08:13:19;99064.44;;;14.08
18713;BMP280;9485;49.386;8.674;2023-03-31T08:18:40;99054.38;;;14.07
18713;BMP280;9485;49.386;8.674;2023-03-31T08:24:02;99047.59;;;14.23
18713;BMP280;9485;49.386;8.674;2023-03-31T08:29:25;99046.94;;;14.37
18713;BMP280;9485;49.386;8.674;2023-03-31T08:34:47;99033.09;;;14.54
18713;BMP280;9485;49.386;8.674;2023-03-31T08:40:15;99021.97;;;14.64
18713;BMP280;9485;49.386;8.674;2023-03-31T08:45:45;99017.59;;;14.83
18713;BMP280;9485;49.386;8.674;2023-03-31T08:51:16;99015.78;;;15.01
18713;BMP280;9485;49.386;8.674;2023-03-31T08:56:43;99019.06;;;15.40
18713;BMP280;9485;49.386;8.674;2023-03-31T09:02:20;98993.22;;;15.88
18713;BMP280;9485;49.386;8.674;2023-03-31T09:07:57;99014.94;;;16.28
18713;BMP280;9485;49.386;8.674;2023-03-31T09:19:32;98992.44;;;15.80
18713;BMP280;9485;49.386;8.674;2023-03-31T09:25:01;99043.13;;;15.39
18713;BMP280;9485;49.386;8.674;2023-03-31T09:30:27;98996.28;;;14.69
18713;BMP280;9485;49.386;8.674;2023-03-31T09:35:50;98987.06;;;14.28
18713;BMP280;9485;49.386;8.674;2023-03-31T09:41:15;98966.78;;;14.24
18713;BMP280;9485;49.386;8.674;2023-03-31T09:46:37;98952.59;;;14.24
18713;BMP280;9485;49.386;8.674;2023-03-31T09:52:05;98940.09;;;14.27
18713;BMP280;9485;49.386;8.674;2023-03-31T09:57:29;98945.69;;;14.40
18713;BMP280;9485;49.386;8.674;2023-03-31T10:02:52;98949.22;;;14.61
18713;BMP280;9485;49.386;8.674;2023-03-31T10:08:24;98945.19;;;14.84
18713;BMP280;9485;49.386;8.674;2023-03-31T10:13:48;98943.38;;;15.29
18713;BMP280;9485;49.386;8.674;2023-03-31T10:19:21;98934.72;;;15.57
18713;BMP280;9485;49.386;8.674;2023-03-31T10:24:44;98935.72;;;15.82
18713;BMP280;9485;49.386;8.674;2023-03-31T10:30:11;98940.09;;;15.83
18713;BMP280;9485;49.386;8.674;2023-03-31T10:35:35;98899.31;;;15.95
18713;BMP280;9485;49.386;8.674;2023-03-31T10:40:59;98937.44;;;16.07
18713;BMP280;9485;49.386;8.674;2023-03-31T10:46:38;98909.72;;;15.71
18713;BMP280;9485;49.386;8.674;2023-03-31T10:52:00;99064.56;;;15.40
18713;BMP280;9485;49.386;8.674;2023-03-31T10:57:34;99000.91;;;14.11
18713;BMP280;9485;49.386;8.674;2023-03-31T11:03:43;98993.03;;;13.30
18713;BMP280;9485;49.386;8.674;2023-03-31T11:09:19;98982.63;;;12.99
18713;BMP280;9485;49.386;8.674;2023-03-31T11:15:10;98974.75;;;13.05
18713;BMP280;9485;49.386;8.674;2023-03-31T11:20:40;98950.06;;;13.59
18713;BMP280;9485;49.386;8.674;2023-03-31T11:26:09;98950.19;;;14.63
18713;BMP280;9485;49.386;8.674;2023-03-31T11:31:44;98944.09;;;16.10
18713;BMP280;9485;49.386;8.674;2023-03-31T11:37:31;98927.53;;;17.30
18713;BMP280;9485;49.386;8.674;2023-03-31T11:43:01;98944.63;;;18.49
18713;BMP280;9485;49.386;8.674;2023-03-31T11:48:36;98943.13;;;18.65
18713;BMP280;9485;49.386;8.674;2023-03-31T11:54:02;98950.44;;;18.10
18713;BMP280;9485;49.386;8.674;2023-03-31T11:59:31;98936.97;;;17.79
18713;BMP280;9485;49.386;8.674;2023-03-31T12:04:57;98928.50;;;17.64
18713;BMP280;9485;49.386;8.674;2023-03-31T12:10:22;98911.59;;;17.58
18713;BMP280;9485;49.386;8.674;2023-03-31T12:15:53;98926.78;;;17.29
18713;BMP280;9485;49.386;8.674;2023-03-31T12:21:22;98907.75;;;16.85
18713;BMP280;9485;49.386;8.674;2023-03-31T12:26:57;98922.84;;;16.41
18713;BMP280;9485;49.386;8.674;2023-03-31T12:32:25;98916.53;;;15.75
18713;BMP280;9485;49.386;8.674;2023-03-31T12:38:23;98893.19;;;15.47
18713;BMP280;9485;49.386;8.674;2023-03-31T12:44:11;98878.94;;;15.39
18713;BMP280;9485;49.386;8.674;2023-03-31T12:49:54;98885.59;;;15.49
18713;BMP280;9485;49.386;8.674;2023-03-31T12:55:46;98886.53;;;15.59
18713;BMP280;9485;49.386;8.674;2023-03-31T13:01:14;98893.41;;;15.71
18713;BMP280;9485;49.386;8.674;2023-03-31T13:06:58;98888.47;;;15.86
18713;BMP280;9485;49.386;8.674;2023-03-31T13:12:23;98881.66;;;15.97
18713;BMP280;9485;49.386;8.674;2023-03-31T13:17:58;98893.03;;;16.19
18713;BMP280;9485;49.386;8.674;2023-03-31T13:23:22;98889.75;;;16.67
18713;BMP280;9485;49.386;8.674;2023-03-31T13:29:10;98886.56;;;17.42
18713;BMP280;9485;49.386;8.674;2023-03-31T13:34:34;98884.47;;;17.99
18713;BMP280;9485;49.386;8.674;2023-03-31T13:40:29;98878.88;;;18.08
18713;BMP280;9485;49.386;8.674;2023-03-31T13:52:27;98851.91;;;18.18
18713;BMP280;9485;49.386;8.674;2023-03-31T14:04:49;98837.78;;;18.45
18713;BMP280;9485;49.386;8.674;2023-03-31T14:10:27;98844.81;;;18.27
18713;BMP280;9485;49.386;8.674;2023-03-31T14:15:52;98826.34;;;18.04
18713;BMP280;9485;49.386;8.674;2023-03-31T14:21:22;98837.28;;;17.73
18713;BMP280;9485;49.386;8.674;2023-03-31T14:26:59;98818.84;;;16.71
18713;BMP280;9485;49.386;8.674;2023-03-31T14:32:30;98809.75;;;15.81
18713;BMP280;9485;49.386;8.674;2023-03-31T14:37:54;98827.91;;;15.26
18713;BMP280;9485;49.386;8.674;2023-03-31T14:43:24;98813.03;;;14.98
18713;BMP280;9485;49.386;8.674;2023-03-31T14:48:48;98798.06;;;14.98
18713;BMP280;9485;49.386;8.674;2023-03-31T14:54:16;98792.09;;;15.38
18713;BMP280;9485;49.386;8.674;2023-03-31T14:59:39;98808.06;;;15.71
18713;BMP280;9485;49.386;8.674;2023-03-31T15:05:03;98804.44;;;15.78
18713;BMP280;9485;49.386;8.674;2023-03-31T15:10:32;98806.91;;;15.67
18713;BMP280;9485;49.386;8.674;2023-03-31T15:15:56;98816.97;;;15.53
18713;BMP280;9485;49.386;8.674;2023-03-31T15:21:23;98815.41;;;15.44
18713;BMP280;9485;49.386;8.674;2023-03-31T15:26:50;98822.06;;;15.39
18713;BMP280;9485;49.386;8.674;2023-03-31T15:32:23;98819.22;;;15.39
18713;BMP280;9485;49.386;8.674;2023-03-31T15:37:45;98817.69;;;15.38
18713;BMP280;9485;49.386;8.674;2023-03-31T15:43:14;98818.66;;;15.48
18713;BMP280;9485;49.386;8.674;2023-03-31T15:48:48;98829.63;;;15.37
18713;BMP280;9485;49.386;8.674;2023-03-31T15:54:31;98816.09;;;15.22
18713;BMP280;9485;49.386;8.674;2023-03-31T15:59:53;98817.53;;;14.79
18713;BMP280;9485;49.386;8.674;2023-03-31T16:05:35;98808.28;;;14.43
18713;BMP280;9485;49.386;8.674;2023-03-31T16:11:02;98820.84;;;14.20
18713;BMP280;9485;49.386;8.674;2023-03-31T16:16:27;98824.19;;;14.11
18713;BMP280;9485;49.386;8.674;2023-03-31T16:21:56;98825.22;;;14.00
18713;BMP280;9485;49.386;8.674;2023-03-31T16:27:19;98831.81;;;13.95
18713;BMP280;9485;49.386;8.674;2023-03-31T16:32:59;98813.63;;;13.91
18713;BMP280;9485;49.386;8.674;2023-03-31T16:38:26;98814.03;;;13.95
18713;BMP280;9485;49.386;8.674;2023-03-31T16:43:47;98819.56;;;14.00
18713;BMP280;9485;49.386;8.674;2023-03-31T16:49:11;98830.94;;;14.08
18713;BMP280;9485;49.386;8.674;2023-03-31T16:54:33;98839.56;;;14.15
18713;BMP280;9485;49.386;8.674;2023-03-31T16:59:54;98842.59;;;14.17
18713;BMP280;9485;49.386;8.674;2023-03-31T17:05:15;98839.75;;;14.17
18713;BMP280;9485;49.386;8.674;2023-03-31T17:10:39;98856.00;;;14.17
18713;BMP280;9485;49.386;8.674;2023-03-31T17:16:00;98868.69;;;14.16
18713;BMP280;9485;49.386;8.674;2023-03-31T17:21:21;98864.13;;;14.13
18713;BMP280;9485;49.386;8.674;2023-03-31T17:26:45;98856.31;;;14.06
18713;BMP280;9485;49.386;8.674;2023-03-31T17:32:05;98863.84;;;14.03
18713;BMP280;9485;49.386;8.674;2023-03-31T17:37:27;98879.34;;;14.02
18713;BMP280;9485;49.386;8.674;2023-03-31T17:42:49;98876.09;;;13.98
18713;BMP280;9485;49.386;8.674;2023-03-31T17:48:11;98890.28;;;13.98
18713;BMP280;9485;49.386;8.674;2023-03-31T17:53:32;98891.19;;;13.93
18713;BMP280;9485;49.386;8.674;2023-03-31T17:58:54;98899.09;;;13.87
18713;BMP280;9485;49.386;8.674;2023-03-31T18:04:15;98893.56;;;13.82
18713;BMP280;9485;49.386;8.674;2023-03-31T18:09:36;98898.25;;;13.79
18713;BMP280;9485;49.386;8.674;2023-03-31T18:14:59;98908.31;;;13.80
18713;BMP280;9485;49.386;8.674;2023-03-31T18:20:22;98926.41;;;13.77
18713;BMP280;9485;49.386;8.674;2023-03-31T18:25:43;98926.34;;;13.70
18713;BMP280;9485;49.386;8.674;2023-03-31T18:31:08;98924.34;;;13.57
18713;BMP280;9485;49.386;8.674;2023-03-31T18:36:29;98931.53;;;13.58
18713;BMP280;9485;49.386;8.674;2023-03-31T18:41:50;98929.78;;;13.55
18713;BMP280;9485;49.386;8.674;2023-03-31T18:47:13;98927.72;;;13.56
18713;BMP280;9485;49.386;8.674;2023-03-31T18:52:35;98931.31;;;13.56
18713;BMP280;9485;49.386;8.674;2023-03-31T18:57:56;98938.50;;;13.57
18713;BMP280;9485;49.386;8.674;2023-03-31T19:03:18;98919.00;;;13.54
18713;BMP280;9485;49.386;8.674;2023-03-31T19:08:39;98919.34;;;13.50
18713;BMP280;9485;49.386;8.674;2023-03-31T19:13:59;98931.38;;;13.44
18713;BMP280;9485;49.386;8.674;2023-03-31T19:19:22;98935.09;;;13.39
18713;BMP280;9485;49.386;8.674;2023-03-31T19:24:44;98933.34;;;13.36
18713;BMP280;9485;49.386;8.674;2023-03-31T19:30:07;98935.22;;;13.33
18713;BMP280;9485;49.386;8.674;2023-03-31T19:35:34;98934.88;;;13.37
18713;BMP280;9485;49.386;8.674;2023-03-31T19:41:00;98933.91;;;13.34
18713;BMP280;9485;49.386;8.674;2023-03-31T19:46:22;98952.75;;;13.45
18713;BMP280;9485;49.386;8.674;2023-03-31T19:51:45;98943.16;;;13.48
18713;BMP280;9485;49.386;8.674;2023-03-31T19:57:06;98949.22;;;13.51
18713;BMP280;9485;49.386;8.674;2023-03-31T20:02:27;98942.47;;;13.54
18713;BMP280;9485;49.386;8.674;2023-03-31T20:07:49;98942.13;;;13.58
18713;BMP280;9485;49.386;8.674;2023-03-31T20:13:10;98928.13;;;13.60
18713;BMP280;9485;49.386;8.674;2023-03-31T20:18:31;98928.91;;;13.60
18713;BMP280;9485;49.386;8.674;2023-03-31T20:23:55;98926.00;;;13.53
18713;BMP280;9485;49.386;8.674;2023-03-31T20:29:15;98929.50;;;13.46
18713;BMP280;9485;49.386;8.674;2023-03-31T20:34:36;98925.81;;;13.38
18713;BMP280;9485;49.386;8.674;2023-03-31T20:39:59;98926.72;;;13.33
18713;BMP280;9485;49.386;8.674;2023-03-31T20:45:19;98924.00;;;13.28
18713;BMP280;9485;49.386;8.674;2023-03-31T20:50:40;98932.44;;;13.20
18713;BMP280;9485;49.386;8.674;2023-03-31T20:56:02;98936.16;;;13.15
18713;BMP280;9485;49.386;8.674;2023-03-31T21:01:25;98939.66;;;13.08
18713;BMP280;9485;49.386;8.674;2023-03-31T21:06:46;98947.53;;;13.02
18713;BMP280;9485;49.386;8.674;2023-03-31T21:12:08;98935.00;;;12.98
18713;BMP280;9485;49.386;8.674;2023-03-31T21:17:29;98932.69;;;12.96
18713;BMP280;9485;49.386;8.674;2023-03-31T21:22:50;98948.94;;;12.96
18713;BMP280;9485;49.386;8.674;2023-03-31T21:28:12;98957.13;;;12.99
18713;BMP280;9485;49.386;8.674;2023-03-31T21:33:35;98954.38;;;13.07
18713;BMP280;9485;49.386;8.674;2023-03-31T21:38:56;98950.34;;;13.15
18713;BMP280;9485;49.386;8.674;2023-03-31T21:44:18;98950.41;;;13.23
18713;BMP280;9485;49.386;8.674;2023-03-31T21:49:39;98952.00;;;13.31
18713;BMP280;9485;49.386;8.674;2023-03-31T21:55:00;98960.84;;;13.41
18713;BMP280;9485;49.386;8.674;2023-03-31T22:00:22;98941.06;;;13.48
18713;BMP280;9485;49.386;8.674;2023-03-31T22:05:42;98955.13;;;13.53
18713;BMP280;9485;49.386;8.674;2023-03-31T22:11:05;98950.97;;;13.54
18713;BMP280;9485;49.386;8.674;2023-03-31T22:16:27;98976.34;;;13.60
18713;BMP280;9485;49.386;8.674;2023-03-31T22:21:48;98978.09;;;13.63
18713;BMP280;9485;49.386;8.674;2023-03-31T22:27:09;98979.06;;;13.65
18713;BMP280;9485;49.386;8.674;2023-03-31T22:32:32;98976.00;;;13.63
18713;BMP280;9485;49.386;8.674;2023-03-31T22:37:53;98984.50;;;13.63
18713;BMP280;9485;49.386;8.674;2023-03-31T22:43:13;98970.88;;;13.62
18713;BMP280;9485;49.386;8.674;2023-03-31T22:48:36;98979.41;;;13.62
18713;BMP280;9485;49.386;8.674;2023-03-31T22:53:58;98987.56;;;13.65
18713;BMP280;9485;49.386;8.674;2023-03-31T22:59:19;99004.38;;;13.63
18713;BMP280;9485;49.386;8.674;2023-03-31T23:04:41;98988.47;;;13.60
18713;BMP280;9485;49.386;8.674;2023-03-31T23:10:02;98986.94;;;13.59
18713;BMP280;9485;49.386;8.674;2023-03-31T23:15:22;98985.97;;;13.57
18713;BMP280;9485;49.386;8.674;2023-03-31T23:20:44;98985.97;;;13.57
18713;BMP280;9485;49.386;8.674;2023-03-31T23:26:05;98984.00;;;13.52
18713;BMP280;9485;49.386;8.674;2023-03-31T23:31:28;98977.91;;;13.48
18713;BMP280;9485;49.386;8.674;2023-03-31T23:36:51;98969.97;;;13.47
18713;BMP280;9485;49.386;8.674;2023-03-31T23:42:37;98971.50;;;13.48
18713;BMP280;9485;49.386;8.674;2023-03-31T23:48:23;98968.78;;;13.42
18713;BMP280;9485;49.386;8.674;2023-03-31T23:53:45;98975.44;;;13.45
18713;BMP280;9485;49.386;8.674;2023-03-31T23:59:06;98964.50;;;13.48
